sensor_id;sensor_type;location;lat;lon;timestamp;pressure;altitude;pressure_sealevel;temperature;humidity
56789;BME280;42657;51.650;17.780;2023-02-20T00:03:31;100601.63;;;-0.96;73.91
56789;BME280;42657;51.650;17.780;2023-02-20T00:07:15;100597.86;;;-1.03;74.04
56789;BME280;42657;51.650;17.780;2023-02-20T00:10:59;100593.17;;;-1.14;74.07
56789;BME280;42657;51.650;17.780;2023-02-20T00:14:42;100592.98;;;-1.20;74.04
56789;BME280;42657;51.650;17.780;2023-02-20T00:18:27;100591.45;;;-1.22;74.06
56789;BME280;42657;51.650;17.780;2023-02-20T00:22:11;100590.09;;;-1.27;73.98
56789;BME280;42657;51.650;17.780;2023-02-20T00:29:42;100579.58;;;-1.42;74.60
56789;BME280;42657;51.650;17.780;2023-02-20T00:37:10;100586.25;;;-1.33;74.66
56789;BME280;42657;51.650;17.780;2023-02-20T00:40:54;100585.47;;;-1.28;74.62
56789;BME280;42657;51.650;17.780;2023-02-20T00:44:41;100578.65;;;-1.26;74.66
56789;BME280;42657;51.650;17.780;2023-02-20T00:48:24;100584.10;;;-1.26;74.63
56789;BME280;42657;51.650;17.780;2023-02-20T00:52:09;100588.09;;;-1.30;74.77
56789;BME280;42657;51.650;17.780;2023-02-20T00:59:32;100578.99;;;-1.36;74.73
56789;BME280;42657;51.650;17.780;2023-02-20T01:03:18;100579.61;;;-1.34;74.94
56789;BME280;42657;51.650;17.780;2023-02-20T01:07:07;100574.11;;;-1.31;74.92
56789;BME280;42657;51.650;17.780;2023-02-20T01:10:54;100566.45;;;-1.33;74.82
56789;BME280;42657;51.650;17.780;2023-02-20T01:14:41;100559.66;;;-1.37;74.97
56789;BME280;42657;51.650;17.780;2023-02-20T01:18:24;100556.73;;;-1.37;75.11
56789;BME280;42657;51.650;17.780;2023-02-20T01:25:35;100556.42;;;-1.35;75.24
56789;BME280;42657;51.650;17.780;2023-02-20T01:29:25;100544.58;;;-1.41;75.35
56789;BME280;42657;51.650;17.780;2023-02-20T01:33:13;100537.84;;;-1.49;75.48
56789;BME280;42657;51.650;17.780;2023-02-20T01:36:59;100534.83;;;-1.50;75.67
56789;BME280;42657;51.650;17.780;2023-02-20T01:40:47;100533.63;;;-1.53;75.84
56789;BME280;42657;51.650;17.780;2023-02-20T01:48:45;100528.11;;;-1.47;76.34
56789;BME280;42657;51.650;17.780;2023-02-20T01:52:23;100531.50;;;-1.36;76.39
56789;BME280;42657;51.650;17.780;2023-02-20T01:59:47;100507.08;;;-1.12;76.24
56789;BME280;42657;51.650;17.780;2023-02-20T02:03:32;100509.05;;;-1.02;76.08
56789;BME280;42657;51.650;17.780;2023-02-20T02:07:18;100513.84;;;-0.98;76.09
56789;BME280;42657;51.650;17.780;2023-02-20T02:14:48;100501.63;;;-0.96;76.02
56789;BME280;42657;51.650;17.780;2023-02-20T03:04:41;100433.27;;;-1.60;77.07
56789;BME280;42657;51.650;17.780;2023-02-20T03:08:16;100434.02;;;-1.65;77.21
56789;BME280;42657;51.650;17.780;2023-02-20T03:12:04;100440.70;;;-1.67;77.22
56789;BME280;42657;51.650;17.780;2023-02-20T03:15:57;100451.33;;;-1.64;77.35
56789;BME280;42657;51.650;17.780;2023-02-20T03:19:44;100458.84;;;-1.54;77.55
56789;BME280;42657;51.650;17.780;2023-02-20T03:23:36;100454.60;;;-1.42;77.55
56789;BME280;42657;51.650;17.780;2023-02-20T03:35:02;100444.50;;;-1.07;77.37
56789;BME280;42657;51.650;17.780;2023-02-20T03:38:50;100436.39;;;-0.99;77.30
56789;BME280;42657;51.650;17.780;2023-02-20T03:42:36;100435.98;;;-0.94;77.32
56789;BME280;42657;51.650;17.780;2023-02-20T03:46:21;100433.53;;;-0.86;77.26
56789;BME280;42657;51.650;17.780;2023-02-20T03:50:05;100431.34;;;-0.76;77.20
56789;BME280;42657;51.650;17.780;2023-02-20T04:01:21;100411.30;;;-0.59;77.09
56789;BME280;42657;51.650;17.780;2023-02-20T04:05:07;100409.70;;;-0.51;76.99
56789;BME280;42657;51.650;17.780;2023-02-20T04:09:04;100408.63;;;-0.44;77.03
56789;BME280;42657;51.650;17.780;2023-02-20T04:16:43;100412.00;;;-0.30;77.03
56789;BME280;42657;51.650;17.780;2023-02-20T04:20:29;100409.28;;;-0.24;77.08
56789;BME280;42657;51.650;17.780;2023-02-20T04:24:22;100405.09;;;-0.18;76.84
56789;BME280;42657;51.650;17.780;2023-02-20T04:27:41;100390.09;;;-0.18;76.89
56789;BME280;42657;51.650;17.780;2023-02-20T04:31:27;100382.41;;;-0.22;77.06
56789;BME280;42657;51.650;17.780;2023-02-20T04:35:15;100386.36;;;-0.28;77.25
56789;BME280;42657;51.650;17.780;2023-02-20T04:42:35;100394.77;;;-0.22;77.66
56789;BME280;42657;51.650;17.780;2023-02-20T04:46:20;100382.20;;;-0.13;77.63
56789;BME280;42657;51.650;17.780;2023-02-20T04:53:49;100353.11;;;-0.03;77.51
56789;BME280;42657;51.650;17.780;2023-02-20T05:01:12;100346.27;;;0.02;77.56
56789;BME280;42657;51.650;17.780;2023-02-20T05:04:44;100346.77;;;0.06;77.62
56789;BME280;42657;51.650;17.780;2023-02-20T05:08:30;100343.20;;;0.11;77.64
56789;BME280;42657;51.650;17.780;2023-02-20T05:12:17;100341.29;;;0.14;77.63
56789;BME280;42657;51.650;17.780;2023-02-20T05:16:03;100348.02;;;0.18;77.71
56789;BME280;42657;51.650;17.780;2023-02-20T05:19:46;100337.19;;;0.24;77.68
56789;BME280;42657;51.650;17.780;2023-02-20T05:23:35;100329.39;;;0.34;77.69
56789;BME280;42657;51.650;17.780;2023-02-20T05:27:21;100327.30;;;0.43;77.69
56789;BME280;42657;51.650;17.780;2023-02-20T05:31:05;100321.38;;;0.45;77.45
56789;BME280;42657;51.650;17.780;2023-02-20T05:34:53;100310.73;;;0.45;77.62
56789;BME280;42657;51.650;17.780;2023-02-20T05:38:40;100303.81;;;0.52;77.58
56789;BME280;42657;51.650;17.780;2023-02-20T05:42:28;100298.23;;;0.60;77.59
56789;BME280;42657;51.650;17.780;2023-02-20T05:46:12;100301.55;;;0.63;77.46
56789;BME280;42657;51.650;17.780;2023-02-20T05:49:58;100306.73;;;0.64;77.32
56789;BME280;42657;51.650;17.780;2023-02-20T05:53:42;100304.46;;;0.65;77.45
56789;BME280;42657;51.650;17.780;2023-02-20T05:57:26;100302.42;;;0.70;77.31
56789;BME280;42657;51.650;17.780;2023-02-20T06:01:15;100290.11;;;0.77;77.18
56789;BME280;42657;51.650;17.780;2023-02-20T06:04:40;100280.45;;;0.82;77.13
56789;BME280;42657;51.650;17.780;2023-02-20T06:08:10;100273.97;;;0.84;77.02
56789;BME280;42657;51.650;17.780;2023-02-20T06:11:56;100268.94;;;0.85;77.19
56789;BME280;42657;51.650;17.780;2023-02-20T06:15:38;100268.59;;;0.87;77.12
56789;BME280;42657;51.650;17.780;2023-02-20T06:19:25;100274.52;;;0.94;76.93
56789;BME280;42657;51.650;17.780;2023-02-20T06:23:10;100270.33;;;1.00;76.92
56789;BME280;42657;51.650;17.780;2023-02-20T06:26:55;100272.64;;;1.04;76.78
56789;BME280;42657;51.650;17.780;2023-02-20T06:30:27;100260.64;;;1.12;76.70
56789;BME280;42657;51.650;17.780;2023-02-20T06:34:12;100257.72;;;1.22;76.60
56789;BME280;42657;51.650;17.780;2023-02-20T06:37:57;100252.64;;;1.35;76.38
56789;BME280;42657;51.650;17.780;2023-02-20T06:52:50;100247.92;;;1.85;75.48
56789;BME280;42657;51.650;17.780;2023-02-20T06:56:35;100243.61;;;1.95;75.11
56789;BME280;42657;51.650;17.780;2023-02-20T07:00:22;100233.73;;;2.03;74.89
56789;BME280;42657;51.650;17.780;2023-02-20T07:19:27;100201.02;;;2.46;73.81
56789;BME280;42657;51.650;17.780;2023-02-20T07:23:10;100197.31;;;2.61;73.59
56789;BME280;42657;51.650;17.780;2023-02-20T07:26:54;100192.67;;;2.72;73.15
56789;BME280;42657;51.650;17.780;2023-02-20T07:30:19;100178.66;;;2.75;73.00
56789;BME280;42657;51.650;17.780;2023-02-20T07:34:04;100176.66;;;2.79;72.99
56789;BME280;42657;51.650;17.780;2023-02-20T07:37:48;100168.48;;;2.86;72.60
56789;BME280;42657;51.650;17.780;2023-02-20T07:41:31;100161.61;;;2.88;72.48
56789;BME280;42657;51.650;17.780;2023-02-20T07:45:14;100160.42;;;2.86;72.54
56789;BME280;42657;51.650;17.780;2023-02-20T07:48:58;100163.10;;;2.81;72.63
56789;BME280;42657;51.650;17.780;2023-02-20T07:52:41;100151.92;;;2.81;72.66
56789;BME280;42657;51.650;17.780;2023-02-20T07:56:26;100132.30;;;2.87;72.68
56789;BME280;42657;51.650;17.780;2023-02-20T08:00:03;100117.69;;;2.95;72.54
56789;BME280;42657;51.650;17.780;2023-02-20T08:03:32;100110.88;;;2.99;72.61
56789;BME280;42657;51.650;17.780;2023-02-20T08:06:55;100115.62;;;3.02;72.46
56789;BME280;42657;51.650;17.780;2023-02-20T08:10:38;100109.05;;;3.05;72.36
56789;BME280;42657;51.650;17.780;2023-02-20T08:14:24;100101.91;;;3.19;72.52
56789;BME280;42657;51.650;17.780;2023-02-20T08:18:11;100089.57;;;3.35;72.27
56789;BME280;42657;51.650;17.780;2023-02-20T08:25:39;100079.39;;;3.75;71.84
56789;BME280;42657;51.650;17.780;2023-02-20T08:29:06;100072.15;;;3.97;71.61
56789;BME280;42657;51.650;17.780;2023-02-20T08:32:36;100065.59;;;4.15;71.24
56789;BME280;42657;51.650;17.780;2023-02-20T08:36:23;100061.20;;;4.32;71.26
56789;BME280;42657;51.650;17.780;2023-02-20T08:40:11;100044.33;;;4.52;70.78
56789;BME280;42657;51.650;17.780;2023-02-20T08:43:56;100043.25;;;4.68;70.26
56789;BME280;42657;51.650;17.780;2023-02-20T08:47:31;100033.60;;;4.90;69.87
56789;BME280;42657;51.650;17.780;2023-02-20T08:51:05;100030.80;;;5.09;69.53
56789;BME280;42657;51.650;17.780;2023-02-20T08:54:52;100037.38;;;5.16;69.24
56789;BME280;42657;51.650;17.780;2023-02-20T08:59:01;100031.63;;;5.23;68.94
56789;BME280;42657;51.650;17.780;2023-02-20T09:06:18;100026.63;;;5.20;68.99
56789;BME280;42657;51.650;17.780;2023-02-20T09:09:55;100008.29;;;5.19;69.07
56789;BME280;42657;51.650;17.780;2023-02-20T09:13:40;100002.48;;;5.13;69.40
56789;BME280;42657;51.650;17.780;2023-02-20T09:17:27;99999.80;;;5.06;69.93
56789;BME280;42657;51.650;17.780;2023-02-20T09:24:53;99978.83;;;5.11;70.75
56789;BME280;42657;51.650;17.780;2023-02-20T09:28:39;99980.13;;;5.10;71.17
56789;BME280;42657;51.650;17.780;2023-02-20T09:32:22;99971.63;;;5.07;71.45
56789;BME280;42657;51.650;17.780;2023-02-20T09:36:08;99969.61;;;5.10;71.75
56789;BME280;42657;51.650;17.780;2023-02-20T09:39:30;99961.89;;;5.27;71.89
56789;BME280;42657;51.650;17.780;2023-02-20T09:43:32;99938.84;;;5.44;71.59
56789;BME280;42657;51.650;17.780;2023-02-20T09:55:16;99896.66;;;5.79;71.29
56789;BME280;42657;51.650;17.780;2023-02-20T10:05:41;99884.01;;;6.05;71.38
56789;BME280;42657;51.650;17.780;2023-02-20T10:09:12;99881.41;;;6.11;71.46
56789;BME280;42657;51.650;17.780;2023-02-20T10:13:06;99861.98;;;6.35;71.14
56789;BME280;42657;51.650;17.780;2023-02-20T10:16:58;99824.45;;;6.71;70.70
56789;BME280;42657;51.650;17.780;2023-02-20T10:24:03;99820.98;;;7.16;69.73
56789;BME280;42657;51.650;17.780;2023-02-20T10:38:01;99773.84;;;7.53;68.29
56789;BME280;42657;51.650;17.780;2023-02-20T10:52:10;99719.20;;;7.79;67.18
56789;BME280;42657;51.650;17.780;2023-02-20T10:59:37;99704.12;;;7.84;67.04
56789;BME280;42657;51.650;17.780;2023-02-20T11:03:29;99699.83;;;7.89;66.67
56789;BME280;42657;51.650;17.780;2023-02-20T11:06:49;99683.17;;;7.93;66.49
56789;BME280;42657;51.650;17.780;2023-02-20T11:10:08;99689.44;;;7.96;66.58
56789;BME280;42657;51.650;17.780;2023-02-20T11:13:36;99672.31;;;8.07;66.22
56789;BME280;42657;51.650;17.780;2023-02-20T11:21:48;99659.78;;;8.31;65.47
56789;BME280;42657;51.650;17.780;2023-02-20T11:24:44;99659.00;;;8.42;65.06
56789;BME280;42657;51.650;17.780;2023-02-20T11:27:56;99648.42;;;8.47;64.76
56789;BME280;42657;51.650;17.780;2023-02-20T11:31:24;99630.85;;;8.61;64.35
56789;BME280;42657;51.650;17.780;2023-02-20T11:35:22;99617.69;;;8.73;64.29
56789;BME280;42657;51.650;17.780;2023-02-20T11:42:14;99597.86;;;9.06;63.56
56789;BME280;42657;51.650;17.780;2023-02-20T11:49:11;99571.69;;;9.30;62.47
56789;BME280;42657;51.650;17.780;2023-02-20T11:52:29;99566.85;;;9.30;61.41
56789;BME280;42657;51.650;17.780;2023-02-20T11:55:36;99570.29;;;9.32;60.94
56789;BME280;42657;51.650;17.780;2023-02-20T12:05:46;99537.36;;;9.73;60.33
56789;BME280;42657;51.650;17.780;2023-02-20T12:08:58;99523.91;;;10.07;59.29
56789;BME280;42657;51.650;17.780;2023-02-20T12:12:01;99512.02;;;10.53;57.76
56789;BME280;42657;51.650;17.780;2023-02-20T12:15:14;99504.94;;;10.61;57.35
56789;BME280;42657;51.650;17.780;2023-02-20T12:19:26;99492.42;;;10.74;56.55
56789;BME280;42657;51.650;17.780;2023-02-20T12:23:13;99489.37;;;10.60;56.32
56789;BME280;42657;51.650;17.780;2023-02-20T12:56:19;99426.08;;;10.85;54.15
56789;BME280;42657;51.650;17.780;2023-02-20T12:59:55;99424.91;;;10.74;54.33
56789;BME280;42657;51.650;17.780;2023-02-20T13:03:30;99440.29;;;10.51;54.28
56789;BME280;42657;51.650;17.780;2023-02-20T13:10:56;99419.30;;;10.31;54.72
56789;BME280;42657;51.650;17.780;2023-02-20T13:14:27;99416.58;;;10.38;54.89
56789;BME280;42657;51.650;17.780;2023-02-20T13:21:34;99413.85;;;10.68;54.03
56789;BME280;42657;51.650;17.780;2023-02-20T13:39:45;99383.56;;;9.65;57.05
56789;BME280;42657;51.650;17.780;2023-02-20T13:51:39;99360.36;;;9.04;59.26
56789;BME280;42657;51.650;17.780;2023-02-20T13:54:47;99369.34;;;9.02;59.63
56789;BME280;42657;51.650;17.780;2023-02-20T13:58:00;99361.45;;;9.07;59.32
56789;BME280;42657;51.650;17.780;2023-02-20T14:09:31;99363.20;;;9.17;58.63
56789;BME280;42657;51.650;17.780;2023-02-20T14:13:13;99378.95;;;9.19;58.82
56789;BME280;42657;51.650;17.780;2023-02-20T14:17:05;99380.84;;;9.19;58.54
56789;BME280;42657;51.650;17.780;2023-02-20T14:32:04;99382.83;;;9.03;59.92
56789;BME280;42657;51.650;17.780;2023-02-20T14:36:28;99391.21;;;9.01;59.70
56789;BME280;42657;51.650;17.780;2023-02-20T14:43:40;99386.58;;;8.93;60.41
56789;BME280;42657;51.650;17.780;2023-02-20T14:51:03;99385.14;;;8.98;60.39
56789;BME280;42657;51.650;17.780;2023-02-20T14:54:55;99375.14;;;8.99;60.54
56789;BME280;42657;51.650;17.780;2023-02-20T14:58:39;99370.36;;;8.93;61.01
56789;BME280;42657;51.650;17.780;2023-02-20T15:06:00;99375.95;;;8.90;61.69
56789;BME280;42657;51.650;17.780;2023-02-20T15:09:37;99374.45;;;8.89;61.68
56789;BME280;42657;51.650;17.780;2023-02-20T15:17:13;99377.14;;;8.91;62.06
56789;BME280;42657;51.650;17.780;2023-02-20T15:20:59;99385.51;;;8.86;62.44
56789;BME280;42657;51.650;17.780;2023-02-20T15:28:33;99386.74;;;8.86;62.55
56789;BME280;42657;51.650;17.780;2023-02-20T15:31:56;99390.98;;;8.83;63.11
56789;BME280;42657;51.650;17.780;2023-02-20T15:35:23;99387.33;;;8.79;63.81
56789;BME280;42657;51.650;17.780;2023-02-20T15:39:08;99387.69;;;8.74;63.71
56789;BME280;42657;51.650;17.780;2023-02-20T15:49:26;99368.67;;;8.65;64.48
56789;BME280;42657;51.650;17.780;2023-02-20T15:52:29;99358.69;;;8.67;64.53
